| Date | Time | Temp. (oF) | Dew Point (oF) | Rel. Hum. (%) | Press. (in.) | Wind Dir. | Wind Speed (mph) | Hourly Rainfall (in.) |
|
|---|---|---|---|---|---|---|---|---|---|
| 1 | 03/08 | 00:00 | 25 | 22 | 90 | 30.17 | WNW | 1 | 0.00 |
| 2 | 03/07 | 23:00 | 27 | 23 | 87 | 30.19 | SW | 1 | 0.00 |
| 3 | 03/07 | 22:00 | 28 | 24 | 85 | 30.19 | S | 4 | 0.00 |
| 4 | 03/07 | 21:00 | 29 | 23 | 81 | 30.19 | S | 2 | 0.00 |
| 5 | 03/07 | 20:00 | 30 | 23 | 77 | 30.20 | SSE | 1 | 0.00 |
| 6 | 03/07 | 19:00 | 30 | 23 | 77 | 30.20 | ESE | 2 | 0.00 |
| 7 | 03/07 | 18:00 | 31 | 23 | 74 | 30.19 | E | 3 | 0.00 |
| 8 | 03/07 | 17:00 | 32 | 23 | 70 | 30.16 | SSE | 4 | 0.00 |
| 9 | 03/07 | 16:00 | 33 | 23 | 67 | 30.19 | SE | 7 | 0.00 |
| 10 | 03/07 | 15:00 | 33 | 22 | 65 | 30.23 | E | 2 | 0.00 |
| 11 | 03/07 | 14:00 | 32 | 21 | 65 | 30.27 | S | 6 | 0.00 |
| 12 | 03/07 | 13:00 | 31 | 20 | 66 | 30.31 | SE | 5 | 0.00 |
| 13 | 03/07 | 12:00 | 29 | 20 | 70 | 30.33 | ESE | 5 | 0.00 |
| 14 | 03/07 | 11:00 | 26 | 18 | 73 | 30.36 | E | 4 | 0.00 |
| 15 | 03/07 | 10:00 | 23 | 16 | 76 | 30.38 | ESE | 6 | 0.00 |
| 16 | 03/07 | 09:00 | 20 | 13 | 76 | 30.39 | SE | 4 | 0.00 |
| 17 | 03/07 | 08:00 | 17 | 15 | 94 | 30.37 | NE | 5 | 0.00 |
| 18 | 03/07 | 07:00 | 12 | 10 | 93 | 30.37 | ENE | 2 | 0.00 |
| 19 | 03/07 | 06:00 | 13 | 10 | 89 | 30.36 | NNW | 1 | 0.00 |
| 20 | 03/07 | 05:00 | 15 | 10 | 83 | 30.33 | E | 1 | 0.00 |
| 21 | 03/07 | 04:00 | 16 | 10 | 80 | 30.29 | N | 3 | 0.00 |
| 22 | 03/07 | 03:00 | 17 | 11 | 78 | 30.29 | NNW | 1 | 0.00 |
| 23 | 03/07 | 02:00 | 18 | 11 | 76 | 30.27 | NW | 2 | 0.00 |
| 24 | 03/07 | 01:00 | 20 | 13 | 76 | 30.25 | NW | 7 | 0.00 |